sensor_id;sensor_type;location;lat;lon;timestamp;pressure;altitude;pressure_sealevel;temperature;humidity
63405;BME280;49541;57.840;12.306;2022-07-29T00:00:05;101318.47;;;16.18;66.06
63405;BME280;49541;57.840;12.306;2022-07-29T00:05:07;101306.25;;;16.06;65.53
63405;BME280;49541;57.840;12.306;2022-07-29T00:10:08;101312.50;;;16.25;64.31
63405;BME280;49541;57.840;12.306;2022-07-29T00:15:08;101316.94;;;16.16;64.01
63405;BME280;49541;57.840;12.306;2022-07-29T00:20:08;101321.44;;;15.97;65.27
63405;BME280;49541;57.840;12.306;2022-07-29T00:25:09;101314.56;;;16.13;65.07
63405;BME280;49541;57.840;12.306;2022-07-29T00:30:09;101319.97;;;15.85;64.74
63405;BME280;49541;57.840;12.306;2022-07-29T00:35:09;101320.41;;;15.43;66.28
63405;BME280;49541;57.840;12.306;2022-07-29T00:40:28;101321.66;;;15.49;65.87
63405;BME280;49541;57.840;12.306;2022-07-29T00:45:28;101318.44;;;15.45;65.60
63405;BME280;49541;57.840;12.306;2022-07-29T00:50:30;101315.81;;;15.26;66.17
63405;BME280;49541;57.840;12.306;2022-07-29T00:55:31;101325.59;;;15.07;66.17
63405;BME280;49541;57.840;12.306;2022-07-29T01:00:31;101319.13;;;14.90;66.57
63405;BME280;49541;57.840;12.306;2022-07-29T01:05:31;101321.28;;;14.87;66.85
63405;BME280;49541;57.840;12.306;2022-07-29T01:10:32;101324.22;;;14.93;66.65
63405;BME280;49541;57.840;12.306;2022-07-29T01:15:33;101310.00;;;14.73;63.41
63405;BME280;49541;57.840;12.306;2022-07-29T01:26:54;101306.03;;;14.58;62.28
63405;BME280;49541;57.840;12.306;2022-07-29T01:31:25;101319.31;;;14.69;63.52
63405;BME280;49541;57.840;12.306;2022-07-29T01:41:28;101322.53;;;14.44;67.51
63405;BME280;49541;57.840;12.306;2022-07-29T01:46:31;101323.94;;;14.38;68.09
63405;BME280;49541;57.840;12.306;2022-07-29T01:51:35;101323.09;;;14.38;67.55
63405;BME280;49541;57.840;12.306;2022-07-29T01:56:38;101321.53;;;14.25;68.49
63405;BME280;49541;57.840;12.306;2022-07-29T02:01:39;101313.09;;;14.40;67.98
63405;BME280;49541;57.840;12.306;2022-07-29T02:06:40;101319.53;;;14.08;69.86
63405;BME280;49541;57.840;12.306;2022-07-29T02:11:42;101311.63;;;13.97;70.37
63405;BME280;49541;57.840;12.306;2022-07-29T02:16:47;101320.66;;;14.15;69.86
63405;BME280;49541;57.840;12.306;2022-07-29T02:21:48;101321.38;;;14.27;69.54
63405;BME280;49541;57.840;12.306;2022-07-29T02:26:51;101319.97;;;14.32;71.02
63405;BME280;49541;57.840;12.306;2022-07-29T02:31:52;101329.03;;;14.41;70.74
63405;BME280;49541;57.840;12.306;2022-07-29T02:36:53;101326.44;;;14.30;71.19
63405;BME280;49541;57.840;12.306;2022-07-29T02:41:56;101323.63;;;14.12;72.41
63405;BME280;49541;57.840;12.306;2022-07-29T02:52:15;101337.06;;;14.90;71.81
63405;BME280;49541;57.840;12.306;2022-07-29T02:57:34;101353.38;;;15.16;70.30
63405;BME280;49541;57.840;12.306;2022-07-29T03:02:37;101350.00;;;14.26;73.76
63405;BME280;49541;57.840;12.306;2022-07-29T03:07:38;101354.84;;;14.62;74.00
63405;BME280;49541;57.840;12.306;2022-07-29T03:12:40;101357.38;;;15.02;71.34
63405;BME280;49541;57.840;12.306;2022-07-29T03:17:41;101362.34;;;14.68;72.13
63405;BME280;49541;57.840;12.306;2022-07-29T03:22:42;101363.91;;;14.01;75.05
63405;BME280;49541;57.840;12.306;2022-07-29T03:27:43;101370.94;;;14.71;74.39
63405;BME280;49541;57.840;12.306;2022-07-29T03:32:43;101366.28;;;14.93;73.37
63405;BME280;49541;57.840;12.306;2022-07-29T03:37:44;101364.88;;;14.60;75.29
63405;BME280;49541;57.840;12.306;2022-07-29T03:42:44;101368.69;;;14.57;75.81
63405;BME280;49541;57.840;12.306;2022-07-29T03:47:47;101363.47;;;14.65;76.14
63405;BME280;49541;57.840;12.306;2022-07-29T03:52:48;101360.78;;;14.56;77.04
63405;BME280;49541;57.840;12.306;2022-07-29T03:57:49;101359.94;;;14.84;76.71
63405;BME280;49541;57.840;12.306;2022-07-29T04:02:49;101363.00;;;15.09;75.50
63405;BME280;49541;57.840;12.306;2022-07-29T04:07:50;101368.66;;;14.96;75.73
63405;BME280;49541;57.840;12.306;2022-07-29T04:12:50;101361.59;;;15.05;75.59
63405;BME280;49541;57.840;12.306;2022-07-29T04:17:50;101360.63;;;14.96;75.21
63405;BME280;49541;57.840;12.306;2022-07-29T04:22:50;101372.44;;;15.13;72.84
63405;BME280;49541;57.840;12.306;2022-07-29T04:27:50;101372.59;;;15.11;70.97
63405;BME280;49541;57.840;12.306;2022-07-29T04:33:03;101365.81;;;15.17;71.22
63405;BME280;49541;57.840;12.306;2022-07-29T04:38:04;101374.91;;;15.44;71.00
63405;BME280;49541;57.840;12.306;2022-07-29T04:43:05;101379.66;;;15.12;70.98
63405;BME280;49541;57.840;12.306;2022-07-29T04:48:06;101370.03;;;15.20;70.17
63405;BME280;49541;57.840;12.306;2022-07-29T04:53:06;101372.38;;;15.42;71.10
63405;BME280;49541;57.840;12.306;2022-07-29T04:58:07;101372.72;;;15.67;70.95
63405;BME280;49541;57.840;12.306;2022-07-29T05:03:08;101373.00;;;15.73;70.93
63405;BME280;49541;57.840;12.306;2022-07-29T05:08:08;101377.31;;;15.94;71.05
63405;BME280;49541;57.840;12.306;2022-07-29T05:13:08;101376.47;;;16.39;70.13
63405;BME280;49541;57.840;12.306;2022-07-29T05:18:08;101376.06;;;16.34;73.68
63405;BME280;49541;57.840;12.306;2022-07-29T05:23:08;101378.31;;;16.92;73.39
63405;BME280;49541;57.840;12.306;2022-07-29T05:28:09;101369.81;;;17.49;70.60
63405;BME280;49541;57.840;12.306;2022-07-29T05:33:09;101378.34;;;18.05;68.10
63405;BME280;49541;57.840;12.306;2022-07-29T05:38:09;101379.69;;;18.93;63.49
63405;BME280;49541;57.840;12.306;2022-07-29T05:43:09;101377.63;;;18.54;63.28
63405;BME280;49541;57.840;12.306;2022-07-29T05:48:10;101377.88;;;18.26;66.46
63405;BME280;49541;57.840;12.306;2022-07-29T05:53:10;101377.47;;;18.55;65.68
63405;BME280;49541;57.840;12.306;2022-07-29T05:58:10;101372.22;;;18.54;64.58
63405;BME280;49541;57.840;12.306;2022-07-29T06:03:10;101380.19;;;17.96;63.72
63405;BME280;49541;57.840;12.306;2022-07-29T06:08:11;101382.06;;;19.12;62.30
63405;BME280;49541;57.840;12.306;2022-07-29T06:13:11;101386.13;;;19.08;63.16
63405;BME280;49541;57.840;12.306;2022-07-29T06:18:12;101382.47;;;19.65;60.15
63405;BME280;49541;57.840;12.306;2022-07-29T06:23:13;101385.38;;;19.47;60.73
63405;BME280;49541;57.840;12.306;2022-07-29T06:28:13;101375.00;;;18.78;62.75
63405;BME280;49541;57.840;12.306;2022-07-29T06:33:17;101381.25;;;18.95;62.80
63405;BME280;49541;57.840;12.306;2022-07-29T06:38:18;101385.75;;;18.95;61.98
63405;BME280;49541;57.840;12.306;2022-07-29T06:43:18;101396.13;;;19.63;61.01
63405;BME280;49541;57.840;12.306;2022-07-29T06:48:19;101387.38;;;20.40;58.27
63405;BME280;49541;57.840;12.306;2022-07-29T06:53:19;101382.72;;;20.26;59.84
63405;BME280;49541;57.840;12.306;2022-07-29T06:58:20;101387.84;;;20.75;56.57
63405;BME280;49541;57.840;12.306;2022-07-29T07:03:20;101387.03;;;20.43;57.45
63405;BME280;49541;57.840;12.306;2022-07-29T07:08:21;101390.69;;;20.59;57.74
63405;BME280;49541;57.840;12.306;2022-07-29T07:13:22;101383.63;;;20.96;56.99
63405;BME280;49541;57.840;12.306;2022-07-29T07:18:22;101386.69;;;20.93;56.36
63405;BME280;49541;57.840;12.306;2022-07-29T07:23:22;101381.75;;;21.34;54.60
63405;BME280;49541;57.840;12.306;2022-07-29T07:28:23;101384.72;;;21.24;53.52
63405;BME280;49541;57.840;12.306;2022-07-29T07:33:23;101385.78;;;21.38;54.69
63405;BME280;49541;57.840;12.306;2022-07-29T07:38:24;101380.94;;;21.78;52.46
63405;BME280;49541;57.840;12.306;2022-07-29T07:43:24;101391.41;;;21.81;52.26
63405;BME280;49541;57.840;12.306;2022-07-29T07:48:24;101385.59;;;21.99;52.75
63405;BME280;49541;57.840;12.306;2022-07-29T07:53:25;101392.94;;;22.35;50.66
63405;BME280;49541;57.840;12.306;2022-07-29T07:58:25;101390.38;;;22.70;50.29
63405;BME280;49541;57.840;12.306;2022-07-29T08:03:25;101393.88;;;22.85;49.87
63405;BME280;49541;57.840;12.306;2022-07-29T08:08:25;101397.84;;;23.67;49.32
63405;BME280;49541;57.840;12.306;2022-07-29T08:13:26;101397.63;;;23.97;46.92
63405;BME280;49541;57.840;12.306;2022-07-29T08:18:30;101396.66;;;23.77;47.85
63405;BME280;49541;57.840;12.306;2022-07-29T08:23:31;101387.94;;;23.81;47.11
63405;BME280;49541;57.840;12.306;2022-07-29T08:28:45;101388.47;;;24.11;45.39
63405;BME280;49541;57.840;12.306;2022-07-29T08:33:48;101398.72;;;24.09;45.56
63405;BME280;49541;57.840;12.306;2022-07-29T08:38:48;101388.56;;;24.38;44.75
63405;BME280;49541;57.840;12.306;2022-07-29T08:43:49;101393.72;;;24.20;45.18
63405;BME280;49541;57.840;12.306;2022-07-29T08:48:50;101387.47;;;24.32;45.72
63405;BME280;49541;57.840;12.306;2022-07-29T08:53:51;101390.50;;;24.58;43.83
63405;BME280;49541;57.840;12.306;2022-07-29T08:58:51;101390.25;;;24.46;45.03
63405;BME280;49541;57.840;12.306;2022-07-29T09:03:51;101393.50;;;24.83;46.98
63405;BME280;49541;57.840;12.306;2022-07-29T09:08:55;101395.38;;;25.36;42.62
63405;BME280;49541;57.840;12.306;2022-07-29T09:13:58;101379.41;;;25.59;39.37
63405;BME280;49541;57.840;12.306;2022-07-29T09:18:58;101390.22;;;25.99;39.97
63405;BME280;49541;57.840;12.306;2022-07-29T09:29:23;101395.28;;;25.89;40.49
63405;BME280;49541;57.840;12.306;2022-07-29T09:34:23;101402.72;;;26.13;38.00
63405;BME280;49541;57.840;12.306;2022-07-29T09:39:30;101389.47;;;26.24;36.97
63405;BME280;49541;57.840;12.306;2022-07-29T09:44:42;101385.75;;;26.11;40.04
63405;BME280;49541;57.840;12.306;2022-07-29T09:49:50;101393.22;;;27.18;35.82
63405;BME280;49541;57.840;12.306;2022-07-29T09:54:50;101394.53;;;27.59;34.03
63405;BME280;49541;57.840;12.306;2022-07-29T09:59:55;101395.75;;;27.63;35.93
63405;BME280;49541;57.840;12.306;2022-07-29T10:04:55;101385.13;;;28.10;34.23
63405;BME280;49541;57.840;12.306;2022-07-29T10:09:56;101380.28;;;27.94;33.59
63405;BME280;49541;57.840;12.306;2022-07-29T10:14:56;101370.38;;;27.74;33.36
63405;BME280;49541;57.840;12.306;2022-07-29T10:19:57;101370.84;;;28.38;33.14
63405;BME280;49541;57.840;12.306;2022-07-29T10:24:57;101372.97;;;28.67;32.20
63405;BME280;49541;57.840;12.306;2022-07-29T10:29:57;101367.03;;;29.64;29.27
63405;BME280;49541;57.840;12.306;2022-07-29T10:40:00;101365.94;;;28.59;30.34
63405;BME280;49541;57.840;12.306;2022-07-29T10:45:24;101360.50;;;28.10;32.52
63405;BME280;49541;57.840;12.306;2022-07-29T10:50:24;101368.41;;;27.82;35.24
63405;BME280;49541;57.840;12.306;2022-07-29T10:55:37;101360.81;;;28.32;36.05
63405;BME280;49541;57.840;12.306;2022-07-29T11:00:40;101357.75;;;28.41;37.17
63405;BME280;49541;57.840;12.306;2022-07-29T11:05:53;101366.78;;;28.59;32.21
63405;BME280;49541;57.840;12.306;2022-07-29T11:11:30;101366.22;;;28.81;31.74
63405;BME280;49541;57.840;12.306;2022-07-29T11:16:14;101356.59;;;29.02;32.85
63405;BME280;49541;57.840;12.306;2022-07-29T11:26:33;101347.19;;;30.72;28.03
63405;BME280;49541;57.840;12.306;2022-07-29T11:31:35;101343.81;;;29.55;28.62
63405;BME280;49541;57.840;12.306;2022-07-29T11:36:36;101344.38;;;29.80;29.25
63405;BME280;49541;57.840;12.306;2022-07-29T11:47:19;101339.72;;;29.17;30.08
63405;BME280;49541;57.840;12.306;2022-07-29T11:52:19;101344.53;;;28.68;31.38
63405;BME280;49541;57.840;12.306;2022-07-29T11:57:20;101345.59;;;28.06;30.67
63405;BME280;49541;57.840;12.306;2022-07-29T12:02:20;101333.00;;;27.68;33.61
63405;BME280;49541;57.840;12.306;2022-07-29T12:07:27;101335.22;;;27.78;31.93
63405;BME280;49541;57.840;12.306;2022-07-29T12:12:28;101327.53;;;28.05;30.59
63405;BME280;49541;57.840;12.306;2022-07-29T12:17:29;101330.78;;;28.14;31.67
63405;BME280;49541;57.840;12.306;2022-07-29T12:22:33;101324.00;;;27.86;31.13
63405;BME280;49541;57.840;12.306;2022-07-29T12:27:33;101312.63;;;28.43;29.69
63405;BME280;49541;57.840;12.306;2022-07-29T12:32:35;101329.06;;;28.85;30.00
63405;BME280;49541;57.840;12.306;2022-07-29T12:37:36;101324.41;;;29.21;30.93
63405;BME280;49541;57.840;12.306;2022-07-29T12:42:37;101326.97;;;29.75;31.05
63405;BME280;49541;57.840;12.306;2022-07-29T12:47:53;101332.72;;;30.31;26.31
63405;BME280;49541;57.840;12.306;2022-07-29T12:52:53;101325.69;;;30.69;27.61
63405;BME280;49541;57.840;12.306;2022-07-29T12:57:53;101321.28;;;33.51;24.03
63405;BME280;49541;57.840;12.306;2022-07-29T13:02:58;101331.09;;;33.21;25.26
63405;BME280;49541;57.840;12.306;2022-07-29T13:08:09;101320.06;;;32.84;23.57
63405;BME280;49541;57.840;12.306;2022-07-29T13:13:10;101336.47;;;32.09;26.73
63405;BME280;49541;57.840;12.306;2022-07-29T13:18:30;101337.03;;;31.89;25.81
63405;BME280;49541;57.840;12.306;2022-07-29T13:23:30;101335.31;;;32.05;26.38
63405;BME280;49541;57.840;12.306;2022-07-29T13:28:30;101329.63;;;32.12;27.10
63405;BME280;49541;57.840;12.306;2022-07-29T13:33:31;101312.09;;;29.71;30.37
63405;BME280;49541;57.840;12.306;2022-07-29T13:38:31;101313.06;;;27.49;36.10
63405;BME280;49541;57.840;12.306;2022-07-29T13:43:31;101322.19;;;27.18;37.76
63405;BME280;49541;57.840;12.306;2022-07-29T13:48:31;101304.53;;;27.94;37.90
63405;BME280;49541;57.840;12.306;2022-07-29T13:53:31;101302.88;;;28.35;35.25
63405;BME280;49541;57.840;12.306;2022-07-29T13:58:32;101299.72;;;28.62;35.05
63405;BME280;49541;57.840;12.306;2022-07-29T14:03:33;101305.53;;;29.60;34.41
63405;BME280;49541;57.840;12.306;2022-07-29T14:08:33;101295.47;;;27.20;39.49
63405;BME280;49541;57.840;12.306;2022-07-29T14:13:33;101296.31;;;27.02;40.17
63405;BME280;49541;57.840;12.306;2022-07-29T14:18:34;101304.91;;;27.61;39.17
63405;BME280;49541;57.840;12.306;2022-07-29T14:23:34;101300.34;;;27.73;39.22
63405;BME280;49541;57.840;12.306;2022-07-29T14:28:34;101298.97;;;26.59;40.15
63405;BME280;49541;57.840;12.306;2022-07-29T14:33:34;101298.09;;;26.90;40.41
63405;BME280;49541;57.840;12.306;2022-07-29T14:38:35;101297.78;;;27.60;38.27
63405;BME280;49541;57.840;12.306;2022-07-29T14:43:35;101297.28;;;28.00;36.90
63405;BME280;49541;57.840;12.306;2022-07-29T14:48:36;101306.56;;;29.30;35.18
63405;BME280;49541;57.840;12.306;2022-07-29T14:53:36;101290.38;;;29.57;34.83
63405;BME280;49541;57.840;12.306;2022-07-29T14:58:36;101300.56;;;28.63;35.81
63405;BME280;49541;57.840;12.306;2022-07-29T15:03:36;101295.38;;;28.01;37.11
63405;BME280;49541;57.840;12.306;2022-07-29T15:08:36;101299.50;;;28.22;36.72
63405;BME280;49541;57.840;12.306;2022-07-29T15:13:36;101295.53;;;28.06;37.25
63405;BME280;49541;57.840;12.306;2022-07-29T15:18:37;101291.66;;;27.28;39.37
63405;BME280;49541;57.840;12.306;2022-07-29T15:23:38;101289.06;;;27.08;40.39
63405;BME280;49541;57.840;12.306;2022-07-29T15:28:38;101278.34;;;26.88;40.21
63405;BME280;49541;57.840;12.306;2022-07-29T15:33:38;101281.09;;;26.63;41.84
63405;BME280;49541;57.840;12.306;2022-07-29T15:38:39;101272.94;;;25.99;42.48
63405;BME280;49541;57.840;12.306;2022-07-29T15:43:43;101273.19;;;26.23;42.15
63405;BME280;49541;57.840;12.306;2022-07-29T15:48:43;101275.56;;;26.12;42.78
63405;BME280;49541;57.840;12.306;2022-07-29T15:53:44;101266.84;;;25.97;42.07
63405;BME280;49541;57.840;12.306;2022-07-29T15:58:44;101270.00;;;25.94;43.68
63405;BME280;49541;57.840;12.306;2022-07-29T16:03:44;101263.91;;;26.55;42.55
63405;BME280;49541;57.840;12.306;2022-07-29T16:08:45;101279.19;;;26.88;40.94
63405;BME280;49541;57.840;12.306;2022-07-29T16:13:45;101274.38;;;27.09;40.62
63405;BME280;49541;57.840;12.306;2022-07-29T16:18:45;101268.13;;;26.58;41.11
63405;BME280;49541;57.840;12.306;2022-07-29T16:23:45;101265.88;;;26.48;41.78
63405;BME280;49541;57.840;12.306;2022-07-29T16:28:45;101264.63;;;26.94;40.37
63405;BME280;49541;57.840;12.306;2022-07-29T16:33:46;101256.94;;;26.66;41.24
63405;BME280;49541;57.840;12.306;2022-07-29T16:38:46;101253.69;;;26.76;42.20
63405;BME280;49541;57.840;12.306;2022-07-29T16:43:46;101256.34;;;27.26;40.51
63405;BME280;49541;57.840;12.306;2022-07-29T16:48:46;101252.66;;;26.95;40.74
63405;BME280;49541;57.840;12.306;2022-07-29T16:53:46;101253.69;;;26.76;41.10
63405;BME280;49541;57.840;12.306;2022-07-29T16:58:47;101243.56;;;26.26;42.51
63405;BME280;49541;57.840;12.306;2022-07-29T17:03:47;101249.09;;;25.74;43.09
63405;BME280;49541;57.840;12.306;2022-07-29T17:09:06;101252.03;;;25.80;43.49
63405;BME280;49541;57.840;12.306;2022-07-29T17:14:07;101248.75;;;25.64;44.98
63405;BME280;49541;57.840;12.306;2022-07-29T17:19:07;101241.81;;;25.68;45.25
63405;BME280;49541;57.840;12.306;2022-07-29T17:24:07;101245.06;;;25.45;45.66
63405;BME280;49541;57.840;12.306;2022-07-29T17:29:08;101249.19;;;25.61;45.88
63405;BME280;49541;57.840;12.306;2022-07-29T17:34:08;101248.19;;;25.94;44.58
63405;BME280;49541;57.840;12.306;2022-07-29T17:39:08;101244.88;;;25.47;45.40
63405;BME280;49541;57.840;12.306;2022-07-29T17:44:11;101242.91;;;25.61;44.45
63405;BME280;49541;57.840;12.306;2022-07-29T17:49:12;101237.63;;;25.66;45.10
63405;BME280;49541;57.840;12.306;2022-07-29T17:54:12;101235.06;;;25.19;45.20
63405;BME280;49541;57.840;12.306;2022-07-29T17:59:13;101226.50;;;25.09;45.60
63405;BME280;49541;57.840;12.306;2022-07-29T18:04:13;101231.09;;;25.28;44.58
63405;BME280;49541;57.840;12.306;2022-07-29T18:09:18;101225.19;;;25.31;44.64
63405;BME280;49541;57.840;12.306;2022-07-29T18:14:19;101225.19;;;25.31;44.95
63405;BME280;49541;57.840;12.306;2022-07-29T18:19:19;101222.72;;;25.23;45.31
63405;BME280;49541;57.840;12.306;2022-07-29T18:24:19;101226.97;;;24.86;46.33
63405;BME280;49541;57.840;12.306;2022-07-29T18:29:20;101224.81;;;25.08;46.35
63405;BME280;49541;57.840;12.306;2022-07-29T18:34:20;101226.69;;;25.14;45.95
63405;BME280;49541;57.840;12.306;2022-07-29T18:39:20;101238.31;;;25.54;44.79
63405;BME280;49541;57.840;12.306;2022-07-29T18:44:21;101234.09;;;24.87;46.88
63405;BME280;49541;57.840;12.306;2022-07-29T18:49:21;101219.50;;;24.55;48.25
63405;BME280;49541;57.840;12.306;2022-07-29T18:54:22;101222.16;;;24.15;49.90
63405;BME280;49541;57.840;12.306;2022-07-29T18:59:22;101229.88;;;23.98;50.63
63405;BME280;49541;57.840;12.306;2022-07-29T19:04:22;101235.13;;;24.19;50.37
63405;BME280;49541;57.840;12.306;2022-07-29T19:09:23;101231.16;;;24.28;49.77
63405;BME280;49541;57.840;12.306;2022-07-29T19:14:23;101243.75;;;24.56;49.83
63405;BME280;49541;57.840;12.306;2022-07-29T19:19:23;101229.91;;;24.38;50.14
63405;BME280;49541;57.840;12.306;2022-07-29T19:24:24;101235.13;;;24.39;49.77
63405;BME280;49541;57.840;12.306;2022-07-29T19:29:24;101235.13;;;24.39;49.90
63405;BME280;49541;57.840;12.306;2022-07-29T19:34:28;101241.63;;;24.18;50.69
63405;BME280;49541;57.840;12.306;2022-07-29T19:39:28;101234.91;;;24.01;50.93
63405;BME280;49541;57.840;12.306;2022-07-29T19:44:28;101239.91;;;23.90;51.74
63405;BME280;49541;57.840;12.306;2022-07-29T19:49:29;101244.28;;;23.85;51.55
63405;BME280;49541;57.840;12.306;2022-07-29T19:54:29;101248.97;;;23.56;52.09
63405;BME280;49541;57.840;12.306;2022-07-29T19:59:29;101238.72;;;23.51;51.85
63405;BME280;49541;57.840;12.306;2022-07-29T20:04:29;101241.50;;;23.23;53.02
63405;BME280;49541;57.840;12.306;2022-07-29T20:09:29;101241.19;;;23.05;53.18
63405;BME280;49541;57.840;12.306;2022-07-29T20:14:30;101238.66;;;22.75;53.80
63405;BME280;49541;57.840;12.306;2022-07-29T20:19:30;101238.31;;;22.85;53.54
63405;BME280;49541;57.840;12.306;2022-07-29T20:24:31;101237.72;;;22.89;53.07
63405;BME280;49541;57.840;12.306;2022-07-29T20:29:31;101236.72;;;22.69;53.53
63405;BME280;49541;57.840;12.306;2022-07-29T20:34:32;101233.94;;;22.34;53.78
63405;BME280;49541;57.840;12.306;2022-07-29T20:39:32;101235.69;;;22.20;54.29
63405;BME280;49541;57.840;12.306;2022-07-29T20:44:32;101242.34;;;21.96;55.09
63405;BME280;49541;57.840;12.306;2022-07-29T20:49:33;101243.00;;;21.47;56.56
63405;BME280;49541;57.840;12.306;2022-07-29T20:54:35;101239.91;;;21.20;56.88
63405;BME280;49541;57.840;12.306;2022-07-29T20:59:35;101239.72;;;21.37;56.07
63405;BME280;49541;57.840;12.306;2022-07-29T21:04:35;101251.03;;;21.25;55.78
63405;BME280;49541;57.840;12.306;2022-07-29T21:09:36;101243.44;;;20.76;57.21
63405;BME280;49541;57.840;12.306;2022-07-29T21:14:36;101236.53;;;20.51;57.93
63405;BME280;49541;57.840;12.306;2022-07-29T21:19:40;101233.06;;;20.65;57.16
63405;BME280;49541;57.840;12.306;2022-07-29T21:24:40;101232.47;;;20.55;57.07
63405;BME280;49541;57.840;12.306;2022-07-29T21:29:40;101238.94;;;20.45;57.52
63405;BME280;49541;57.840;12.306;2022-07-29T21:34:40;101240.31;;;20.03;58.44
63405;BME280;49541;57.840;12.306;2022-07-29T21:39:41;101235.09;;;19.94;58.79
63405;BME280;49541;57.840;12.306;2022-07-29T21:44:41;101237.56;;;19.80;59.34
63405;BME280;49541;57.840;12.306;2022-07-29T21:49:41;101244.94;;;19.55;60.06
63405;BME280;49541;57.840;12.306;2022-07-29T21:54:41;101238.31;;;19.27;63.03
63405;BME280;49541;57.840;12.306;2022-07-29T21:59:41;101233.28;;;19.23;62.99
63405;BME280;49541;57.840;12.306;2022-07-29T22:04:42;101247.03;;;18.89;64.29
63405;BME280;49541;57.840;12.306;2022-07-29T22:09:42;101236.09;;;18.82;63.94
63405;BME280;49541;57.840;12.306;2022-07-29T22:14:42;101244.16;;;18.66;64.29
63405;BME280;49541;57.840;12.306;2022-07-29T22:19:42;101255.63;;;18.85;64.15
63405;BME280;49541;57.840;12.306;2022-07-29T22:24:42;101237.94;;;18.41;65.19
63405;BME280;49541;57.840;12.306;2022-07-29T22:29:43;101237.78;;;18.18;64.59
63405;BME280;49541;57.840;12.306;2022-07-29T22:34:43;101236.94;;;18.34;63.23
63405;BME280;49541;57.840;12.306;2022-07-29T22:39:43;101233.22;;;18.18;62.58
63405;BME280;49541;57.840;12.306;2022-07-29T22:44:43;101233.72;;;18.06;63.02
63405;BME280;49541;57.840;12.306;2022-07-29T22:49:44;101225.97;;;18.35;61.57
63405;BME280;49541;57.840;12.306;2022-07-29T22:54:44;101232.88;;;18.13;62.57
63405;BME280;49541;57.840;12.306;2022-07-29T22:59:44;101227.28;;;17.90;61.82
63405;BME280;49541;57.840;12.306;2022-07-29T23:04:45;101220.31;;;17.71;62.18
63405;BME280;49541;57.840;12.306;2022-07-29T23:09:45;101219.22;;;17.90;62.02
63405;BME280;49541;57.840;12.306;2022-07-29T23:14:45;101217.06;;;17.51;61.98
63405;BME280;49541;57.840;12.306;2022-07-29T23:19:45;101213.19;;;17.54;61.97
63405;BME280;49541;57.840;12.306;2022-07-29T23:24:46;101226.59;;;17.37;62.08
63405;BME280;49541;57.840;12.306;2022-07-29T23:29:46;101220.97;;;17.14;61.84
63405;BME280;49541;57.840;12.306;2022-07-29T23:34:46;101228.06;;;17.24;61.56
63405;BME280;49541;57.840;12.306;2022-07-29T23:39:46;101219.69;;;17.35;62.51
63405;BME280;49541;57.840;12.306;2022-07-29T23:44:47;101219.75;;;17.09;63.03
63405;BME280;49541;57.840;12.306;2022-07-29T23:49:47;101211.75;;;16.91;63.38
63405;BME280;49541;57.840;12.306;2022-07-29T23:54:48;101218.28;;;17.14;62.64
63405;BME280;49541;57.840;12.306;2022-07-29T23:59:49;101221.53;;;16.74;64.07
